Time,TemperatureF,DewpointF,PressureIn,WindDirection,WindDirectionDegrees,WindSpeedMPH,WindSpeedGustMPH,Humidity,HourlyPrecipIn,Conditions,Clouds,dailyrainin,SoftwareType,DateUTC
2013-08-28 00:14:00,79.9,74.3,29.81,East,90,2.2,-999.0,83,-99.99,,,0.00,Acu-Link.com,2013-08-28 05:14:00,
2013-08-28 00:29:00,79.9,74.3,29.82,NE,45,3.2,-999.0,83,-99.99,,,0.00,Acu-Link.com,2013-08-28 05:29:00,
2013-08-28 00:45:00,79.7,74.1,29.82,East,90,3.7,-999.0,83,-99.99,,,0.00,Acu-Link.com,2013-08-28 05:45:00,
2013-08-28 01:00:00,79.5,74.2,29.81,ENE,67,2.7,-999.0,84,-99.99,,,0.00,Acu-Link.com,2013-08-28 06:00:00,
2013-08-28 01:15:00,79.3,74.0,29.81,ENE,67,2.7,-999.0,84,-99.99,,,0.00,Acu-Link.com,2013-08-28 06:15:00,
2013-08-28 01:30:00,79.2,73.9,29.82,NE,45,2.2,-999.0,84,-99.99,,,0.00,Acu-Link.com,2013-08-28 06:30:00,
2013-08-28 01:45:00,78.8,73.5,29.81,NNE,22,2.7,-999.0,84,-99.99,,,0.00,Acu-Link.com,2013-08-28 06:45:00,
2013-08-28 02:00:00,78.6,73.7,29.82,NE,45,3.7,-999.0,85,-99.99,,,0.00,Acu-Link.com,2013-08-28 07:00:00,
2013-08-28 02:16:00,77.9,73.0,29.81,NE,45,1.7,-999.0,85,-99.99,,,0.00,Acu-Link.com,2013-08-28 07:16:00,
2013-08-28 02:31:00,77.5,73.0,29.81,NE,45,3.2,-999.0,86,-99.99,,,0.00,Acu-Link.com,2013-08-28 07:31:00,
2013-08-28 02:46:00,77.5,73.0,29.81,ENE,67,1.7,-999.0,86,-99.99,,,0.00,Acu-Link.com,2013-08-28 07:46:00,
2013-08-28 03:02:00,77.0,72.8,29.81,NE,45,3.2,-999.0,87,-99.99,,,0.00,Acu-Link.com,2013-08-28 08:02:00,
2013-08-28 03:17:00,76.8,72.6,29.82,NNE,22,3.7,-999.0,87,-99.99,,,0.00,Acu-Link.com,2013-08-28 08:17:00,
2013-08-28 03:32:00,76.6,72.4,29.82,NE,45,5.8,-999.0,87,-99.99,,,0.00,Acu-Link.com,2013-08-28 08:32:00,
2013-08-28 03:47:00,76.5,72.7,29.82,NE,45,3.7,-999.0,88,-99.99,,,0.00,Acu-Link.com,2013-08-28 08:47:00,
2013-08-28 04:02:00,76.1,72.3,29.82,ESE,112,2.7,-999.0,88,-99.99,,,0.00,Acu-Link.com,2013-08-28 09:02:00,
2013-08-28 04:17:00,76.3,72.5,29.82,ESE,112,3.2,-999.0,88,-99.99,,,0.00,Acu-Link.com,2013-08-28 09:17:00,
2013-08-28 04:32:00,75.7,72.2,29.82,NE,45,3.2,-999.0,89,-99.99,,,0.00,Acu-Link.com,2013-08-28 09:32:00,
2013-08-28 04:48:00,75.7,72.2,29.81,NE,45,3.7,-999.0,89,-99.99,,,0.00,Acu-Link.com,2013-08-28 09:48:00,
2013-08-28 05:03:00,75.6,72.1,29.81,SSE,157,1.7,-999.0,89,-99.99,,,0.00,Acu-Link.com,2013-08-28 10:03:00,
2013-08-28 05:18:00,75.4,71.9,29.81,ESE,112,0.0,-999.0,89,-99.99,,,0.00,Acu-Link.com,2013-08-28 10:18:00,
2013-08-28 05:33:00,75.2,71.7,29.81,East,90,1.7,-999.0,89,-99.99,,,0.00,Acu-Link.com,2013-08-28 10:33:00,
2013-08-28 05:49:00,74.8,71.3,29.81,NE,45,3.2,-999.0,89,-99.99,,,0.00,Acu-Link.com,2013-08-28 10:49:00,
2013-08-28 06:04:00,74.7,71.2,29.82,NNE,22,2.2,-999.0,89,-99.99,,,0.00,Acu-Link.com,2013-08-28 11:04:00,
2013-08-28 06:19:00,74.3,71.2,29.82,ENE,67,2.7,-999.0,90,-99.99,,,0.00,Acu-Link.com,2013-08-28 11:19:00,
2013-08-28 06:34:00,74.3,71.2,29.83,NE,45,2.7,-999.0,90,-99.99,,,0.00,Acu-Link.com,2013-08-28 11:34:00,
2013-08-28 06:49:00,74.3,71.2,29.84,ESE,112,2.2,-999.0,90,-99.99,,,0.00,Acu-Link.com,2013-08-28 11:49:00,
2013-08-28 07:05:00,74.1,71.0,29.83,NE,45,3.2,-999.0,90,-99.99,,,0.00,Acu-Link.com,2013-08-28 12:05:00,
2013-08-28 07:20:00,74.1,71.0,29.83,ESE,112,3.2,-999.0,90,-99.99,,,0.00,Acu-Link.com,2013-08-28 12:20:00,
2013-08-28 07:35:00,74.3,71.2,29.83,SE,135,3.7,-999.0,90,-99.99,,,0.00,Acu-Link.com,2013-08-28 12:35:00,
2013-08-28 07:50:00,74.5,71.0,29.83,ENE,67,2.7,-999.0,89,-99.99,,,0.00,Acu-Link.com,2013-08-28 12:50:00,
2013-08-28 08:06:00,75.6,71.1,29.84,NNE,22,3.2,-999.0,86,-99.99,,,0.00,Acu-Link.com,2013-08-28 13:06:00,
2013-08-28 08:21:00,76.5,71.3,29.85,ENE,67,2.7,-999.0,84,-99.99,,,0.00,Acu-Link.com,2013-08-28 13:21:00,
2013-08-28 08:36:00,78.4,71.7,29.86,ESE,112,2.7,-999.0,80,-99.99,,,0.00,Acu-Link.com,2013-08-28 13:36:00,
2013-08-28 08:51:00,79.9,72.0,29.86,NNW,337,1.7,-999.0,77,-99.99,,,0.00,Acu-Link.com,2013-08-28 13:51:00,
2013-08-28 09:06:00,83.7,73.3,29.87,ESE,112,2.7,-999.0,71,-99.99,,,0.00,Acu-Link.com,2013-08-28 14:06:00,
2013-08-28 09:21:00,84.4,72.7,29.87,South,180,3.2,-999.0,68,-99.99,,,0.00,Acu-Link.com,2013-08-28 14:21:00,
2013-08-28 09:36:00,82.8,72.4,29.87,South,180,4.2,-999.0,71,-99.99,,,0.00,Acu-Link.com,2013-08-28 14:36:00,
2013-08-28 09:51:00,83.1,72.7,29.88,ESE,112,2.7,-999.0,71,-99.99,,,0.00,Acu-Link.com,2013-08-28 14:51:00,
2013-08-28 10:07:00,84.0,72.7,29.87,SW,225,2.2,-999.0,69,-99.99,,,0.00,Acu-Link.com,2013-08-28 15:07:00,
2013-08-28 10:22:00,84.0,72.7,29.88,East,90,2.2,-999.0,69,-99.99,,,0.00,Acu-Link.com,2013-08-28 15:22:00,
2013-08-28 10:37:00,84.6,73.3,29.88,NW,315,5.3,-999.0,69,-99.99,,,0.00,Acu-Link.com,2013-08-28 15:37:00,
2013-08-28 10:53:00,85.6,72.5,29.89,NE,45,3.2,-999.0,65,-99.99,,,0.00,Acu-Link.com,2013-08-28 15:53:00,
2013-08-28 11:08:00,86.2,73.9,29.88,WNW,292,2.2,-999.0,67,-99.99,,,0.00,Acu-Link.com,2013-08-28 16:08:00,
2013-08-28 11:23:00,86.9,74.1,29.88,North,0,4.7,-999.0,66,-99.99,,,0.00,Acu-Link.com,2013-08-28 16:23:00,
2013-08-28 11:38:00,86.9,74.1,29.90,NNW,337,7.3,-999.0,66,-99.99,,,0.00,Acu-Link.com,2013-08-28 16:38:00,
2013-08-28 11:53:00,88.0,74.7,29.90,NNE,22,6.3,-999.0,65,-99.99,,,0.00,Acu-Link.com,2013-08-28 16:53:00,
2013-08-28 12:09:00,87.8,76.3,29.90,NE,45,7.3,-999.0,69,-99.99,,,0.00,Acu-Link.com,2013-08-28 17:09:00,
2013-08-28 12:24:00,89.2,77.7,29.90,North,0,7.8,-999.0,69,-99.99,,,0.00,Acu-Link.com,2013-08-28 17:24:00,
2013-08-28 12:39:00,89.4,77.4,29.89,East,90,4.7,-999.0,68,-99.99,,,0.00,Acu-Link.com,2013-08-28 17:39:00,
2013-08-28 12:54:00,88.7,77.2,29.89,East,90,4.2,-999.0,69,-99.99,,,0.00,Acu-Link.com,2013-08-28 17:54:00,
2013-08-28 13:09:00,89.6,77.6,29.88,NNE,22,7.3,-999.0,68,-99.99,,,0.00,Acu-Link.com,2013-08-28 18:09:00,
2013-08-28 13:24:00,90.3,78.7,29.88,NE,45,4.2,-999.0,69,-99.99,,,0.00,Acu-Link.com,2013-08-28 18:24:00,
2013-08-28 13:39:00,90.5,78.5,29.86,ESE,112,7.3,-999.0,68,-99.99,,,0.00,Acu-Link.com,2013-08-28 18:39:00,
2013-08-28 13:55:00,91.6,79.1,29.86,ESE,112,8.9,-999.0,67,-99.99,,,0.00,Acu-Link.com,2013-08-28 18:55:00,
2013-08-28 14:10:00,91.2,78.2,29.85,SW,225,5.8,-999.0,66,-99.99,,,0.00,Acu-Link.com,2013-08-28 19:10:00,
2013-08-28 14:25:00,91.6,78.1,29.85,ESE,112,7.3,-999.0,65,-99.99,,,0.00,Acu-Link.com,2013-08-28 19:25:00,
2013-08-28 14:40:00,91.4,77.9,29.85,ENE,67,6.3,-999.0,65,-99.99,,,0.00,Acu-Link.com,2013-08-28 19:40:00,
2013-08-28 14:55:00,91.8,77.8,29.85,ESE,112,9.9,-999.0,64,-99.99,,,0.00,Acu-Link.com,2013-08-28 19:55:00,
2013-08-28 15:10:00,91.6,77.2,29.85,NNE,22,4.2,-999.0,63,-99.99,,,0.00,Acu-Link.com,2013-08-28 20:10:00,
2013-08-28 15:25:00,91.9,77.0,29.83,SSE,157,13.5,-999.0,62,-99.99,,,0.00,Acu-Link.com,2013-08-28 20:25:00,
2013-08-28 15:40:00,91.2,76.3,29.84,ESE,112,4.7,-999.0,62,-99.99,,,0.00,Acu-Link.com,2013-08-28 20:40:00,
2013-08-28 15:55:00,91.4,75.0,29.83,ESE,112,7.8,-999.0,59,-99.99,,,0.00,Acu-Link.com,2013-08-28 20:55:00,
2013-08-28 16:10:00,90.9,76.5,29.83,ESE,112,7.3,-999.0,63,-99.99,,,0.00,Acu-Link.com,2013-08-28 21:10:00,
2013-08-28 16:26:00,91.4,76.5,29.84,ESE,112,7.8,-999.0,62,-99.99,,,0.00,Acu-Link.com,2013-08-28 21:26:00,
2013-08-28 16:41:00,90.3,75.0,29.84,SW,225,6.8,-999.0,61,-99.99,,,0.00,Acu-Link.com,2013-08-28 21:41:00,
2013-08-28 16:56:00,90.1,75.3,29.83,SSE,157,5.8,-999.0,62,-99.99,,,0.00,Acu-Link.com,2013-08-28 21:56:00,
2013-08-28 17:11:00,88.9,75.6,29.83,SE,135,7.3,-999.0,65,-99.99,,,0.00,Acu-Link.com,2013-08-28 22:11:00,
2013-08-28 17:26:00,89.2,76.3,29.82,SE,135,9.9,-999.0,66,-99.99,,,0.00,Acu-Link.com,2013-08-28 22:26:00,
2013-08-28 17:42:00,89.8,76.4,29.83,SSE,157,6.3,-999.0,65,-99.99,,,0.00,Acu-Link.com,2013-08-28 22:42:00,
2013-08-28 17:57:00,90.9,77.0,29.82,SSW,202,4.7,-999.0,64,-99.99,,,0.00,Acu-Link.com,2013-08-28 22:57:00,
2013-08-28 18:12:00,90.0,75.2,29.84,South,180,6.3,-999.0,62,-99.99,,,0.00,Acu-Link.com,2013-08-28 23:12:00,
2013-08-28 18:27:00,89.8,75.5,29.84,SE,135,3.7,-999.0,63,-99.99,,,0.00,Acu-Link.com,2013-08-28 23:27:00,
2013-08-28 18:43:00,90.3,76.4,29.84,ESE,112,5.3,-999.0,64,-99.99,,,0.00,Acu-Link.com,2013-08-28 23:43:00,
2013-08-28 18:58:00,90.3,76.0,29.84,SSE,157,4.7,-999.0,63,-99.99,,,0.00,Acu-Link.com,2013-08-28 23:58:00,
2013-08-28 19:13:00,90.0,76.6,29.85,ESE,112,3.2,-999.0,65,-99.99,,,0.00,Acu-Link.com,2013-08-29 00:13:00,
2013-08-28 19:28:00,89.1,76.7,29.84,SSE,157,3.7,-999.0,67,-99.99,,,0.00,Acu-Link.com,2013-08-29 00:28:00,
2013-08-28 19:44:00,87.6,76.1,29.84,ESE,112,3.2,-999.0,69,-99.99,,,0.00,Acu-Link.com,2013-08-29 00:44:00,
2013-08-28 19:59:00,85.8,75.3,29.84,SSE,157,3.7,-999.0,71,-99.99,,,0.00,Acu-Link.com,2013-08-29 00:59:00,
2013-08-28 20:14:00,84.4,74.8,29.84,SE,135,2.7,-999.0,73,-99.99,,,0.00,Acu-Link.com,2013-08-29 01:14:00,
2013-08-28 20:29:00,83.1,74.3,29.84,SE,135,3.2,-999.0,75,-99.99,,,0.00,Acu-Link.com,2013-08-29 01:29:00,
2013-08-28 20:45:00,82.6,74.2,29.84,SSE,157,3.2,-999.0,76,-99.99,,,0.00,Acu-Link.com,2013-08-29 01:45:00,
2013-08-28 21:00:00,81.9,74.0,29.85,SE,135,4.2,-999.0,77,-99.99,,,0.00,Acu-Link.com,2013-08-29 02:00:00,
2013-08-28 21:15:00,81.7,73.4,29.86,SE,135,6.8,-999.0,76,-99.99,,,0.00,Acu-Link.com,2013-08-29 02:15:00,
2013-08-28 21:30:00,81.0,72.7,29.85,SE,135,4.7,-999.0,76,-99.99,,,0.00,Acu-Link.com,2013-08-29 02:30:00,
2013-08-28 21:45:00,80.4,72.5,29.85,SE,135,2.7,-999.0,77,-99.99,,,0.00,Acu-Link.com,2013-08-29 02:45:00,
2013-08-28 22:00:00,79.7,72.2,29.85,SSE,157,4.2,-999.0,78,-99.99,,,0.00,Acu-Link.com,2013-08-29 03:00:00,
2013-08-28 22:16:00,79.2,72.1,29.86,SE,135,2.2,-999.0,79,-99.99,,,0.00,Acu-Link.com,2013-08-29 03:16:00,
2013-08-28 22:31:00,78.8,72.1,29.86,SSE,157,3.2,-999.0,80,-99.99,,,0.00,Acu-Link.com,2013-08-29 03:31:00,
2013-08-28 22:46:00,78.3,72.0,29.86,SSE,157,2.2,-999.0,81,-99.99,,,0.00,Acu-Link.com,2013-08-29 03:46:00,
2013-08-28 23:01:00,77.7,71.8,29.86,SSE,157,1.7,-999.0,82,-99.99,,,0.00,Acu-Link.com,2013-08-29 04:01:00,
2013-08-28 23:17:00,77.5,71.6,29.86,South,180,0.0,-999.0,82,-99.99,,,0.00,Acu-Link.com,2013-08-29 04:17:00,
2013-08-28 23:32:00,77.2,71.3,29.86,SW,225,1.7,-999.0,82,-99.99,,,0.00,Acu-Link.com,2013-08-29 04:32:00,
2013-08-28 23:47:00,76.8,70.9,29.86,ESE,112,1.7,-999.0,82,-99.99,,,0.00,Acu-Link.com,2013-08-29 04:47:00,